sensor_id;sensor_type;location;lat;lon;timestamp;P1;durP1;ratioP1;P2;durP2;ratioP2
19347;SDS011;9810;52.480;9.806;2023-09-18T00:01:50;4.57;;;4.18;;
19347;SDS011;9810;52.480;9.806;2023-09-18T00:04:16;10.30;;;5.30;;
19347;SDS011;9810;52.480;9.806;2023-09-18T00:06:43;8.07;;;4.88;;
19347;SDS011;9810;52.480;9.806;2023-09-18T00:09:10;4.78;;;4.22;;
19347;SDS011;9810;52.480;9.806;2023-09-18T00:11:38;4.65;;;4.20;;
19347;SDS011;9810;52.480;9.806;2023-09-18T00:14:07;8.23;;;5.20;;
19347;SDS011;9810;52.480;9.806;2023-09-18T00:16:34;6.07;;;5.05;;
19347;SDS011;9810;52.480;9.806;2023-09-18T00:19:03;6.68;;;5.25;;
19347;SDS011;9810;52.480;9.806;2023-09-18T00:21:32;5.85;;;4.82;;
19347;SDS011;9810;52.480;9.806;2023-09-18T00:23:59;6.25;;;4.60;;
19347;SDS011;9810;52.480;9.806;2023-09-18T00:26:26;6.10;;;4.90;;
19347;SDS011;9810;52.480;9.806;2023-09-18T00:28:53;6.20;;;4.50;;
19347;SDS011;9810;52.480;9.806;2023-09-18T00:31:20;9.17;;;4.87;;
19347;SDS011;9810;52.480;9.806;2023-09-18T00:33:47;5.47;;;4.93;;
19347;SDS011;9810;52.480;9.806;2023-09-18T00:36:16;7.57;;;4.63;;
19347;SDS011;9810;52.480;9.806;2023-09-18T00:38:43;7.23;;;4.97;;
19347;SDS011;9810;52.480;9.806;2023-09-18T00:41:11;5.20;;;4.43;;
19347;SDS011;9810;52.480;9.806;2023-09-18T00:43:38;5.53;;;4.43;;
19347;SDS011;9810;52.480;9.806;2023-09-18T00:46:05;5.25;;;4.70;;
19347;SDS011;9810;52.480;9.806;2023-09-18T00:48:33;5.95;;;4.45;;
19347;SDS011;9810;52.480;9.806;2023-09-18T00:51:00;5.78;;;5.18;;
19347;SDS011;9810;52.480;9.806;2023-09-18T00:53:30;7.88;;;4.53;;
19347;SDS011;9810;52.480;9.806;2023-09-18T00:55:57;5.20;;;4.70;;
19347;SDS011;9810;52.480;9.806;2023-09-18T00:58:26;7.57;;;5.03;;
19347;SDS011;9810;52.480;9.806;2023-09-18T01:00:53;4.93;;;4.43;;
19347;SDS011;9810;52.480;9.806;2023-09-18T01:03:21;6.65;;;5.07;;
19347;SDS011;9810;52.480;9.806;2023-09-18T01:05:51;8.68;;;4.95;;
19347;SDS011;9810;52.480;9.806;2023-09-18T01:08:18;6.97;;;4.40;;
19347;SDS011;9810;52.480;9.806;2023-09-18T01:10:47;5.47;;;4.25;;
19347;SDS011;9810;52.480;9.806;2023-09-18T01:13:21;6.35;;;5.28;;
19347;SDS011;9810;52.480;9.806;2023-09-18T01:15:54;7.82;;;5.07;;
19347;SDS011;9810;52.480;9.806;2023-09-18T01:18:25;6.95;;;5.38;;
19347;SDS011;9810;52.480;9.806;2023-09-18T01:20:52;6.67;;;5.50;;
19347;SDS011;9810;52.480;9.806;2023-09-18T01:23:20;5.32;;;4.82;;
19347;SDS011;9810;52.480;9.806;2023-09-18T01:25:47;5.40;;;4.70;;
19347;SDS011;9810;52.480;9.806;2023-09-18T01:28:14;10.13;;;5.90;;
19347;SDS011;9810;52.480;9.806;2023-09-18T01:30:42;6.43;;;5.18;;
19347;SDS011;9810;52.480;9.806;2023-09-18T01:33:09;7.53;;;4.72;;
19347;SDS011;9810;52.480;9.806;2023-09-18T01:35:37;6.68;;;4.45;;
19347;SDS011;9810;52.480;9.806;2023-09-18T01:38:04;9.07;;;4.97;;
19347;SDS011;9810;52.480;9.806;2023-09-18T01:40:33;7.35;;;5.30;;
19347;SDS011;9810;52.480;9.806;2023-09-18T01:43:00;5.22;;;4.72;;
19347;SDS011;9810;52.480;9.806;2023-09-18T01:45:28;6.82;;;5.20;;
19347;SDS011;9810;52.480;9.806;2023-09-18T01:47:55;5.10;;;4.40;;
19347;SDS011;9810;52.480;9.806;2023-09-18T01:50:22;8.13;;;4.55;;
19347;SDS011;9810;52.480;9.806;2023-09-18T01:52:49;6.07;;;4.45;;
19347;SDS011;9810;52.480;9.806;2023-09-18T01:55:16;7.72;;;4.97;;
19347;SDS011;9810;52.480;9.806;2023-09-18T01:57:45;6.88;;;4.57;;
19347;SDS011;9810;52.480;9.806;2023-09-18T02:00:13;7.35;;;4.00;;
19347;SDS011;9810;52.480;9.806;2023-09-18T02:02:40;5.20;;;4.35;;
19347;SDS011;9810;52.480;9.806;2023-09-18T02:05:08;5.38;;;4.68;;
19347;SDS011;9810;52.480;9.806;2023-09-18T02:07:35;5.72;;;4.50;;
19347;SDS011;9810;52.480;9.806;2023-09-18T02:10:02;5.97;;;4.53;;
19347;SDS011;9810;52.480;9.806;2023-09-18T02:12:29;5.15;;;4.50;;
19347;SDS011;9810;52.480;9.806;2023-09-18T02:14:58;6.32;;;4.60;;
19347;SDS011;9810;52.480;9.806;2023-09-18T02:17:30;6.43;;;5.15;;
19347;SDS011;9810;52.480;9.806;2023-09-18T02:19:57;8.75;;;4.80;;
19347;SDS011;9810;52.480;9.806;2023-09-18T02:22:26;7.70;;;5.05;;
19347;SDS011;9810;52.480;9.806;2023-09-18T02:24:52;6.07;;;4.72;;
19347;SDS011;9810;52.480;9.806;2023-09-18T02:27:20;7.68;;;5.07;;
19347;SDS011;9810;52.480;9.806;2023-09-18T02:29:47;8.07;;;5.22;;
19347;SDS011;9810;52.480;9.806;2023-09-18T02:32:17;8.43;;;5.20;;
19347;SDS011;9810;52.480;9.806;2023-09-18T02:34:44;7.32;;;4.85;;
19347;SDS011;9810;52.480;9.806;2023-09-18T02:37:11;9.23;;;4.63;;
19347;SDS011;9810;52.480;9.806;2023-09-18T02:39:38;7.53;;;5.40;;
19347;SDS011;9810;52.480;9.806;2023-09-18T02:42:06;6.93;;;5.13;;
19347;SDS011;9810;52.480;9.806;2023-09-18T02:44:33;13.90;;;5.85;;
19347;SDS011;9810;52.480;9.806;2023-09-18T02:47:00;9.88;;;5.07;;
19347;SDS011;9810;52.480;9.806;2023-09-18T02:49:29;8.60;;;5.20;;
19347;SDS011;9810;52.480;9.806;2023-09-18T02:51:57;7.65;;;5.38;;
19347;SDS011;9810;52.480;9.806;2023-09-18T02:54:24;7.85;;;5.70;;
19347;SDS011;9810;52.480;9.806;2023-09-18T02:56:52;6.75;;;4.97;;
19347;SDS011;9810;52.480;9.806;2023-09-18T02:59:19;6.53;;;4.67;;
19347;SDS011;9810;52.480;9.806;2023-09-18T03:01:46;7.97;;;5.18;;
19347;SDS011;9810;52.480;9.806;2023-09-18T03:04:13;9.45;;;5.38;;
19347;SDS011;9810;52.480;9.806;2023-09-18T03:06:42;10.20;;;6.10;;
19347;SDS011;9810;52.480;9.806;2023-09-18T03:09:09;9.65;;;5.88;;
19347;SDS011;9810;52.480;9.806;2023-09-18T03:11:36;8.63;;;6.00;;
19347;SDS011;9810;52.480;9.806;2023-09-18T03:14:03;9.83;;;5.97;;
19347;SDS011;9810;52.480;9.806;2023-09-18T03:16:30;10.77;;;7.57;;
19347;SDS011;9810;52.480;9.806;2023-09-18T03:18:58;9.95;;;6.00;;
19347;SDS011;9810;52.480;9.806;2023-09-18T03:21:25;8.50;;;5.67;;
19347;SDS011;9810;52.480;9.806;2023-09-18T03:23:54;12.27;;;6.57;;
19347;SDS011;9810;52.480;9.806;2023-09-18T03:26:23;9.07;;;5.90;;
19347;SDS011;9810;52.480;9.806;2023-09-18T03:28:50;8.83;;;6.17;;
19347;SDS011;9810;52.480;9.806;2023-09-18T03:31:17;7.50;;;5.97;;
19347;SDS011;9810;52.480;9.806;2023-09-18T03:33:44;10.53;;;6.50;;
19347;SDS011;9810;52.480;9.806;2023-09-18T03:36:11;9.37;;;5.93;;
19347;SDS011;9810;52.480;9.806;2023-09-18T03:38:39;8.47;;;5.67;;
19347;SDS011;9810;52.480;9.806;2023-09-18T03:41:08;10.32;;;5.35;;
19347;SDS011;9810;52.480;9.806;2023-09-18T03:43:35;8.80;;;5.77;;
19347;SDS011;9810;52.480;9.806;2023-09-18T03:46:05;7.75;;;5.90;;
19347;SDS011;9810;52.480;9.806;2023-09-18T03:48:32;10.97;;;6.10;;
19347;SDS011;9810;52.480;9.806;2023-09-18T03:51:02;9.60;;;5.83;;
19347;SDS011;9810;52.480;9.806;2023-09-18T03:53:30;9.10;;;5.87;;
19347;SDS011;9810;52.480;9.806;2023-09-18T03:55:58;8.02;;;5.95;;
19347;SDS011;9810;52.480;9.806;2023-09-18T03:58:27;6.63;;;5.93;;
19347;SDS011;9810;52.480;9.806;2023-09-18T04:00:54;9.43;;;5.28;;
19347;SDS011;9810;52.480;9.806;2023-09-18T04:03:22;9.07;;;5.57;;
19347;SDS011;9810;52.480;9.806;2023-09-18T04:05:49;11.27;;;5.35;;
19347;SDS011;9810;52.480;9.806;2023-09-18T04:08:16;10.32;;;5.40;;
19347;SDS011;9810;52.480;9.806;2023-09-18T04:10:43;9.07;;;5.22;;
19347;SDS011;9810;52.480;9.806;2023-09-18T04:13:11;7.03;;;5.00;;
19347;SDS011;9810;52.480;9.806;2023-09-18T04:15:40;11.57;;;5.43;;
19347;SDS011;9810;52.480;9.806;2023-09-18T04:18:07;10.38;;;6.00;;
19347;SDS011;9810;52.480;9.806;2023-09-18T04:20:34;6.75;;;5.57;;
19347;SDS011;9810;52.480;9.806;2023-09-18T04:23:18;7.38;;;5.25;;
19347;SDS011;9810;52.480;9.806;2023-09-18T04:25:47;6.00;;;4.82;;
19347;SDS011;9810;52.480;9.806;2023-09-18T04:28:16;6.15;;;5.32;;
19347;SDS011;9810;52.480;9.806;2023-09-18T04:30:45;6.40;;;5.35;;
19347;SDS011;9810;52.480;9.806;2023-09-18T04:33:13;10.27;;;5.30;;
19347;SDS011;9810;52.480;9.806;2023-09-18T04:35:42;7.65;;;5.47;;
19347;SDS011;9810;52.480;9.806;2023-09-18T04:38:10;6.00;;;5.07;;
19347;SDS011;9810;52.480;9.806;2023-09-18T04:40:39;8.82;;;5.00;;
19347;SDS011;9810;52.480;9.806;2023-09-18T04:43:06;8.20;;;4.63;;
19347;SDS011;9810;52.480;9.806;2023-09-18T04:45:34;7.87;;;5.23;;
19347;SDS011;9810;52.480;9.806;2023-09-18T04:48:03;9.33;;;5.23;;
19347;SDS011;9810;52.480;9.806;2023-09-18T04:50:31;8.23;;;6.20;;
19347;SDS011;9810;52.480;9.806;2023-09-18T04:52:59;13.00;;;5.27;;
19347;SDS011;9810;52.480;9.806;2023-09-18T04:55:26;9.23;;;5.60;;
19347;SDS011;9810;52.480;9.806;2023-09-18T04:57:53;9.17;;;5.40;;
19347;SDS011;9810;52.480;9.806;2023-09-18T05:00:20;9.43;;;6.00;;
19347;SDS011;9810;52.480;9.806;2023-09-18T05:02:48;10.47;;;5.13;;
19347;SDS011;9810;52.480;9.806;2023-09-18T05:05:17;7.03;;;5.40;;
19347;SDS011;9810;52.480;9.806;2023-09-18T05:07:44;9.43;;;5.63;;
19347;SDS011;9810;52.480;9.806;2023-09-18T05:10:11;7.93;;;5.53;;
19347;SDS011;9810;52.480;9.806;2023-09-18T05:12:38;8.63;;;5.97;;
19347;SDS011;9810;52.480;9.806;2023-09-18T05:15:07;7.43;;;4.87;;
19347;SDS011;9810;52.480;9.806;2023-09-18T05:17:41;9.63;;;5.63;;
19347;SDS011;9810;52.480;9.806;2023-09-18T05:20:09;6.40;;;5.20;;
19347;SDS011;9810;52.480;9.806;2023-09-18T05:22:40;7.63;;;5.20;;
19347;SDS011;9810;52.480;9.806;2023-09-18T05:25:08;7.07;;;5.87;;
19347;SDS011;9810;52.480;9.806;2023-09-18T05:27:36;8.07;;;5.50;;
19347;SDS011;9810;52.480;9.806;2023-09-18T05:30:09;6.50;;;5.23;;
19347;SDS011;9810;52.480;9.806;2023-09-18T05:32:38;6.80;;;4.83;;
19347;SDS011;9810;52.480;9.806;2023-09-18T05:35:05;6.50;;;4.93;;
19347;SDS011;9810;52.480;9.806;2023-09-18T05:37:35;6.27;;;4.93;;
19347;SDS011;9810;52.480;9.806;2023-09-18T05:40:08;7.27;;;5.20;;
19347;SDS011;9810;52.480;9.806;2023-09-18T05:42:37;7.90;;;4.87;;
19347;SDS011;9810;52.480;9.806;2023-09-18T05:45:04;7.87;;;5.50;;
19347;SDS011;9810;52.480;9.806;2023-09-18T05:47:32;7.60;;;5.27;;
19347;SDS011;9810;52.480;9.806;2023-09-18T05:50:00;7.93;;;5.60;;
19347;SDS011;9810;52.480;9.806;2023-09-18T05:52:30;7.37;;;5.40;;
19347;SDS011;9810;52.480;9.806;2023-09-18T05:54:59;10.23;;;5.20;;
19347;SDS011;9810;52.480;9.806;2023-09-18T05:57:27;11.00;;;5.47;;
19347;SDS011;9810;52.480;9.806;2023-09-18T05:59:55;8.00;;;5.23;;
19347;SDS011;9810;52.480;9.806;2023-09-18T06:02:22;8.13;;;5.50;;
19347;SDS011;9810;52.480;9.806;2023-09-18T06:04:52;10.47;;;5.70;;
19347;SDS011;9810;52.480;9.806;2023-09-18T06:07:22;7.03;;;5.57;;
19347;SDS011;9810;52.480;9.806;2023-09-18T06:09:50;8.17;;;5.43;;
19347;SDS011;9810;52.480;9.806;2023-09-18T06:12:17;10.70;;;5.57;;
19347;SDS011;9810;52.480;9.806;2023-09-18T06:14:46;6.73;;;5.43;;
19347;SDS011;9810;52.480;9.806;2023-09-18T06:17:13;10.40;;;5.97;;
19347;SDS011;9810;52.480;9.806;2023-09-18T06:19:41;10.43;;;6.03;;
19347;SDS011;9810;52.480;9.806;2023-09-18T06:22:08;8.20;;;5.73;;
19347;SDS011;9810;52.480;9.806;2023-09-18T06:24:35;7.10;;;5.77;;
19347;SDS011;9810;52.480;9.806;2023-09-18T06:27:02;8.20;;;6.07;;
19347;SDS011;9810;52.480;9.806;2023-09-18T06:29:30;6.80;;;5.23;;
19347;SDS011;9810;52.480;9.806;2023-09-18T06:31:59;8.53;;;5.23;;
19347;SDS011;9810;52.480;9.806;2023-09-18T06:34:26;6.70;;;4.80;;
19347;SDS011;9810;52.480;9.806;2023-09-18T06:36:56;7.93;;;4.87;;
19347;SDS011;9810;52.480;9.806;2023-09-18T06:39:23;8.03;;;5.17;;
19347;SDS011;9810;52.480;9.806;2023-09-18T06:41:51;8.53;;;4.80;;
19347;SDS011;9810;52.480;9.806;2023-09-18T06:44:18;4.97;;;4.30;;
19347;SDS011;9810;52.480;9.806;2023-09-18T06:46:46;5.97;;;5.33;;
19347;SDS011;9810;52.480;9.806;2023-09-18T06:49:15;11.53;;;5.53;;
19347;SDS011;9810;52.480;9.806;2023-09-18T06:51:42;8.00;;;5.40;;
19347;SDS011;9810;52.480;9.806;2023-09-18T06:54:09;5.00;;;4.50;;
19347;SDS011;9810;52.480;9.806;2023-09-18T06:56:36;8.70;;;5.30;;
19347;SDS011;9810;52.480;9.806;2023-09-18T06:59:03;6.27;;;5.40;;
19347;SDS011;9810;52.480;9.806;2023-09-18T07:01:30;8.17;;;5.50;;
19347;SDS011;9810;52.480;9.806;2023-09-18T07:03:58;5.97;;;4.67;;
19347;SDS011;9810;52.480;9.806;2023-09-18T07:06:27;7.33;;;5.73;;
19347;SDS011;9810;52.480;9.806;2023-09-18T07:08:54;6.27;;;4.40;;
19347;SDS011;9810;52.480;9.806;2023-09-18T07:11:21;6.47;;;5.13;;
19347;SDS011;9810;52.480;9.806;2023-09-18T07:13:48;8.23;;;5.20;;
19347;SDS011;9810;52.480;9.806;2023-09-18T07:16:15;8.90;;;5.20;;
19347;SDS011;9810;52.480;9.806;2023-09-18T07:18:42;9.23;;;5.70;;
19347;SDS011;9810;52.480;9.806;2023-09-18T07:21:09;6.87;;;5.30;;
19347;SDS011;9810;52.480;9.806;2023-09-18T07:23:39;10.65;;;6.03;;
19347;SDS011;9810;52.480;9.806;2023-09-18T07:26:06;7.25;;;5.10;;
19347;SDS011;9810;52.480;9.806;2023-09-18T07:28:33;9.75;;;5.18;;
19347;SDS011;9810;52.480;9.806;2023-09-18T07:31:04;6.45;;;4.70;;
19347;SDS011;9810;52.480;9.806;2023-09-18T07:33:32;5.60;;;5.00;;
19347;SDS011;9810;52.480;9.806;2023-09-18T07:35:59;9.80;;;6.35;;
19347;SDS011;9810;52.480;9.806;2023-09-18T07:38:26;10.27;;;5.90;;
19347;SDS011;9810;52.480;9.806;2023-09-18T07:40:55;7.10;;;5.45;;
19347;SDS011;9810;52.480;9.806;2023-09-18T07:43:23;6.57;;;5.35;;
19347;SDS011;9810;52.480;9.806;2023-09-18T07:45:50;8.60;;;5.10;;
19347;SDS011;9810;52.480;9.806;2023-09-18T07:48:19;9.68;;;5.28;;
19347;SDS011;9810;52.480;9.806;2023-09-18T07:50:46;9.20;;;4.85;;
19347;SDS011;9810;52.480;9.806;2023-09-18T07:53:14;8.52;;;4.55;;
19347;SDS011;9810;52.480;9.806;2023-09-18T07:55:42;11.23;;;5.18;;
19347;SDS011;9810;52.480;9.806;2023-09-18T07:58:10;6.25;;;4.68;;
19347;SDS011;9810;52.480;9.806;2023-09-18T08:00:38;6.93;;;5.20;;
19347;SDS011;9810;52.480;9.806;2023-09-18T08:03:05;6.25;;;4.43;;
19347;SDS011;9810;52.480;9.806;2023-09-18T08:05:32;9.50;;;4.65;;
19347;SDS011;9810;52.480;9.806;2023-09-18T08:07:59;6.40;;;4.28;;
19347;SDS011;9810;52.480;9.806;2023-09-18T08:10:29;10.73;;;4.53;;
19347;SDS011;9810;52.480;9.806;2023-09-18T08:12:56;6.32;;;4.28;;
19347;SDS011;9810;52.480;9.806;2023-09-18T08:15:25;8.57;;;4.13;;
19347;SDS011;9810;52.480;9.806;2023-09-18T08:17:52;7.55;;;4.45;;
19347;SDS011;9810;52.480;9.806;2023-09-18T08:20:19;4.72;;;3.72;;
19347;SDS011;9810;52.480;9.806;2023-09-18T08:22:46;7.15;;;3.47;;
19347;SDS011;9810;52.480;9.806;2023-09-18T08:25:14;4.72;;;3.58;;
19347;SDS011;9810;52.480;9.806;2023-09-18T08:27:42;6.85;;;3.83;;
19347;SDS011;9810;52.480;9.806;2023-09-18T08:30:10;6.78;;;3.78;;
19347;SDS011;9810;52.480;9.806;2023-09-18T08:32:39;9.20;;;3.90;;
19347;SDS011;9810;52.480;9.806;2023-09-18T08:35:07;5.90;;;3.42;;
19347;SDS011;9810;52.480;9.806;2023-09-18T08:37:35;6.43;;;3.42;;
19347;SDS011;9810;52.480;9.806;2023-09-18T08:40:02;5.45;;;3.28;;
19347;SDS011;9810;52.480;9.806;2023-09-18T08:42:34;9.25;;;3.65;;
19347;SDS011;9810;52.480;9.806;2023-09-18T08:45:04;5.53;;;3.42;;
19347;SDS011;9810;52.480;9.806;2023-09-18T08:47:34;8.27;;;3.40;;
19347;SDS011;9810;52.480;9.806;2023-09-18T08:50:04;5.38;;;3.25;;
19347;SDS011;9810;52.480;9.806;2023-09-18T08:52:33;7.88;;;3.35;;
19347;SDS011;9810;52.480;9.806;2023-09-18T08:55:01;6.90;;;3.40;;
19347;SDS011;9810;52.480;9.806;2023-09-18T08:57:28;8.63;;;3.42;;
19347;SDS011;9810;52.480;9.806;2023-09-18T08:59:56;8.27;;;3.65;;
19347;SDS011;9810;52.480;9.806;2023-09-18T09:02:26;6.85;;;3.47;;
19347;SDS011;9810;52.480;9.806;2023-09-18T09:04:53;7.63;;;3.50;;
19347;SDS011;9810;52.480;9.806;2023-09-18T09:07:21;5.55;;;3.22;;
19347;SDS011;9810;52.480;9.806;2023-09-18T09:09:48;11.15;;;3.70;;
19347;SDS011;9810;52.480;9.806;2023-09-18T09:12:15;6.18;;;3.08;;
19347;SDS011;9810;52.480;9.806;2023-09-18T09:14:48;10.75;;;3.15;;
19347;SDS011;9810;52.480;9.806;2023-09-18T09:17:29;6.47;;;3.05;;
19347;SDS011;9810;52.480;9.806;2023-09-18T09:20:07;7.93;;;3.60;;
19347;SDS011;9810;52.480;9.806;2023-09-18T09:22:37;8.60;;;3.42;;
19347;SDS011;9810;52.480;9.806;2023-09-18T09:25:09;5.35;;;2.97;;
19347;SDS011;9810;52.480;9.806;2023-09-18T09:27:52;8.50;;;2.95;;
19347;SDS011;9810;52.480;9.806;2023-09-18T09:30:20;12.55;;;3.22;;
19347;SDS011;9810;52.480;9.806;2023-09-18T09:32:49;7.65;;;2.63;;
19347;SDS011;9810;52.480;9.806;2023-09-18T09:35:20;5.10;;;2.72;;
19347;SDS011;9810;52.480;9.806;2023-09-18T09:37:49;7.30;;;2.80;;
19347;SDS011;9810;52.480;9.806;2023-09-18T09:40:18;5.47;;;2.75;;
19347;SDS011;9810;52.480;9.806;2023-09-18T09:42:46;8.75;;;2.97;;
19347;SDS011;9810;52.480;9.806;2023-09-18T09:45:14;10.50;;;2.95;;
19347;SDS011;9810;52.480;9.806;2023-09-18T09:47:42;8.60;;;2.45;;
19347;SDS011;9810;52.480;9.806;2023-09-18T09:50:10;11.90;;;2.95;;
19347;SDS011;9810;52.480;9.806;2023-09-18T09:52:40;5.15;;;2.60;;
19347;SDS011;9810;52.480;9.806;2023-09-18T09:55:21;13.57;;;3.22;;
19347;SDS011;9810;52.480;9.806;2023-09-18T09:57:50;4.45;;;2.20;;
19347;SDS011;9810;52.480;9.806;2023-09-18T10:00:19;8.20;;;2.95;;
19347;SDS011;9810;52.480;9.806;2023-09-18T10:02:59;9.45;;;2.70;;
19347;SDS011;9810;52.480;9.806;2023-09-18T10:05:28;7.68;;;3.00;;
19347;SDS011;9810;52.480;9.806;2023-09-18T10:07:58;5.47;;;2.72;;
19347;SDS011;9810;52.480;9.806;2023-09-18T10:10:30;6.75;;;2.70;;
19347;SDS011;9810;52.480;9.806;2023-09-18T10:13:00;10.98;;;3.22;;
19347;SDS011;9810;52.480;9.806;2023-09-18T10:15:36;3.50;;;2.22;;
19347;SDS011;9810;52.480;9.806;2023-09-18T10:18:10;6.18;;;2.28;;
19347;SDS011;9810;52.480;9.806;2023-09-18T10:20:44;4.70;;;2.70;;
19347;SDS011;9810;52.480;9.806;2023-09-18T10:23:15;3.97;;;1.90;;
19347;SDS011;9810;52.480;9.806;2023-09-18T10:25:55;5.70;;;2.30;;
19347;SDS011;9810;52.480;9.806;2023-09-18T10:28:24;10.45;;;3.20;;
19347;SDS011;9810;52.480;9.806;2023-09-18T10:30:54;7.70;;;2.70;;
19347;SDS011;9810;52.480;9.806;2023-09-18T10:33:24;5.60;;;2.60;;
19347;SDS011;9810;52.480;9.806;2023-09-18T10:35:52;5.38;;;2.17;;
19347;SDS011;9810;52.480;9.806;2023-09-18T10:38:20;8.10;;;2.13;;
19347;SDS011;9810;52.480;9.806;2023-09-18T10:40:47;4.20;;;2.30;;
19347;SDS011;9810;52.480;9.806;2023-09-18T10:43:17;5.28;;;2.60;;
19347;SDS011;9810;52.480;9.806;2023-09-18T10:45:44;8.13;;;2.92;;
19347;SDS011;9810;52.480;9.806;2023-09-18T10:48:12;9.50;;;2.83;;
19347;SDS011;9810;52.480;9.806;2023-09-18T10:50:41;7.53;;;2.88;;
19347;SDS011;9810;52.480;9.806;2023-09-18T10:53:10;10.13;;;5.53;;
19347;SDS011;9810;52.480;9.806;2023-09-18T10:55:38;5.97;;;2.53;;
19347;SDS011;9810;52.480;9.806;2023-09-18T10:58:08;5.68;;;1.80;;
19347;SDS011;9810;52.480;9.806;2023-09-18T11:00:37;1.42;;;1.33;;
19347;SDS011;9810;52.480;9.806;2023-09-18T11:03:10;4.82;;;2.10;;
19347;SDS011;9810;52.480;9.806;2023-09-18T11:05:39;2.43;;;1.77;;
19347;SDS011;9810;52.480;9.806;2023-09-18T11:08:25;6.03;;;2.40;;
19347;SDS011;9810;52.480;9.806;2023-09-18T11:10:57;7.60;;;3.08;;
19347;SDS011;9810;52.480;9.806;2023-09-18T11:13:29;19.90;;;6.22;;
19347;SDS011;9810;52.480;9.806;2023-09-18T11:16:03;23.15;;;5.60;;
19347;SDS011;9810;52.480;9.806;2023-09-18T11:18:41;27.08;;;7.07;;
19347;SDS011;9810;52.480;9.806;2023-09-18T11:21:09;45.85;;;11.00;;
19347;SDS011;9810;52.480;9.806;2023-09-18T11:23:37;46.88;;;12.27;;
19347;SDS011;9810;52.480;9.806;2023-09-18T11:26:08;32.58;;;7.22;;
19347;SDS011;9810;52.480;9.806;2023-09-18T11:28:36;6.88;;;2.60;;
19347;SDS011;9810;52.480;9.806;2023-09-18T11:31:05;10.95;;;3.35;;
19347;SDS011;9810;52.480;9.806;2023-09-18T11:33:36;8.63;;;2.67;;
19347;SDS011;9810;52.480;9.806;2023-09-18T11:36:08;11.52;;;2.55;;
19347;SDS011;9810;52.480;9.806;2023-09-18T11:38:52;12.23;;;2.47;;
19347;SDS011;9810;52.480;9.806;2023-09-18T11:41:21;10.13;;;3.90;;
19347;SDS011;9810;52.480;9.806;2023-09-18T11:43:50;8.48;;;2.53;;
19347;SDS011;9810;52.480;9.806;2023-09-18T11:46:19;5.88;;;2.55;;
19347;SDS011;9810;52.480;9.806;2023-09-18T11:48:47;2.80;;;1.55;;
19347;SDS011;9810;52.480;9.806;2023-09-18T11:51:22;7.90;;;2.38;;
19347;SDS011;9810;52.480;9.806;2023-09-18T11:53:51;4.85;;;2.22;;
19347;SDS011;9810;52.480;9.806;2023-09-18T11:56:21;8.73;;;2.80;;
19347;SDS011;9810;52.480;9.806;2023-09-18T11:58:48;7.07;;;2.22;;
19347;SDS011;9810;52.480;9.806;2023-09-18T12:01:17;5.88;;;2.38;;
19347;SDS011;9810;52.480;9.806;2023-09-18T12:03:52;8.67;;;2.13;;
19347;SDS011;9810;52.480;9.806;2023-09-18T12:06:20;3.10;;;1.57;;
19347;SDS011;9810;52.480;9.806;2023-09-18T12:08:48;5.05;;;2.00;;
19347;SDS011;9810;52.480;9.806;2023-09-18T12:11:17;6.00;;;2.50;;
19347;SDS011;9810;52.480;9.806;2023-09-18T12:13:44;4.63;;;2.17;;
19347;SDS011;9810;52.480;9.806;2023-09-18T12:16:12;6.35;;;2.45;;
19347;SDS011;9810;52.480;9.806;2023-09-18T12:18:45;4.40;;;2.13;;
19347;SDS011;9810;52.480;9.806;2023-09-18T12:21:14;5.95;;;1.90;;
19347;SDS011;9810;52.480;9.806;2023-09-18T12:23:43;9.45;;;2.47;;
19347;SDS011;9810;52.480;9.806;2023-09-18T12:26:11;11.68;;;2.15;;
19347;SDS011;9810;52.480;9.806;2023-09-18T12:28:39;3.95;;;2.10;;
19347;SDS011;9810;52.480;9.806;2023-09-18T12:31:09;7.68;;;2.28;;
19347;SDS011;9810;52.480;9.806;2023-09-18T12:33:37;3.88;;;1.98;;
19347;SDS011;9810;52.480;9.806;2023-09-18T12:36:08;7.13;;;2.20;;
19347;SDS011;9810;52.480;9.806;2023-09-18T12:38:39;5.05;;;1.50;;
19347;SDS011;9810;52.480;9.806;2023-09-18T12:41:07;5.72;;;1.80;;
19347;SDS011;9810;52.480;9.806;2023-09-18T12:43:35;12.88;;;1.95;;
19347;SDS011;9810;52.480;9.806;2023-09-18T12:46:05;3.95;;;1.48;;
19347;SDS011;9810;52.480;9.806;2023-09-18T12:48:36;6.85;;;1.58;;
19347;SDS011;9810;52.480;9.806;2023-09-18T12:51:09;4.90;;;1.88;;
19347;SDS011;9810;52.480;9.806;2023-09-18T12:53:36;5.75;;;1.80;;
19347;SDS011;9810;52.480;9.806;2023-09-18T12:56:07;2.85;;;1.48;;
19347;SDS011;9810;52.480;9.806;2023-09-18T12:58:36;3.97;;;1.20;;
19347;SDS011;9810;52.480;9.806;2023-09-18T13:01:04;4.45;;;1.55;;
19347;SDS011;9810;52.480;9.806;2023-09-18T13:03:34;4.78;;;1.05;;
19347;SDS011;9810;52.480;9.806;2023-09-18T13:06:16;7.95;;;1.70;;
19347;SDS011;9810;52.480;9.806;2023-09-18T13:08:44;5.07;;;1.30;;
19347;SDS011;9810;52.480;9.806;2023-09-18T13:11:11;3.97;;;1.10;;
19347;SDS011;9810;52.480;9.806;2023-09-18T13:13:41;21.05;;;2.30;;
19347;SDS011;9810;52.480;9.806;2023-09-18T13:16:09;3.03;;;1.20;;
19347;SDS011;9810;52.480;9.806;2023-09-18T13:18:37;3.63;;;1.40;;
19347;SDS011;9810;52.480;9.806;2023-09-18T13:21:11;3.90;;;1.20;;
19347;SDS011;9810;52.480;9.806;2023-09-18T13:23:39;4.55;;;1.00;;
19347;SDS011;9810;52.480;9.806;2023-09-18T13:26:08;6.13;;;1.80;;
19347;SDS011;9810;52.480;9.806;2023-09-18T13:28:35;5.57;;;1.45;;
19347;SDS011;9810;52.480;9.806;2023-09-18T13:31:05;3.47;;;1.00;;
19347;SDS011;9810;52.480;9.806;2023-09-18T13:33:32;6.13;;;1.10;;
19347;SDS011;9810;52.480;9.806;2023-09-18T13:36:04;7.00;;;1.48;;
19347;SDS011;9810;52.480;9.806;2023-09-18T13:38:33;4.93;;;1.20;;
19347;SDS011;9810;52.480;9.806;2023-09-18T13:41:02;6.10;;;1.23;;
19347;SDS011;9810;52.480;9.806;2023-09-18T13:43:30;10.27;;;1.30;;
19347;SDS011;9810;52.480;9.806;2023-09-18T13:45:59;3.88;;;1.00;;
19347;SDS011;9810;52.480;9.806;2023-09-18T13:48:29;15.80;;;1.77;;
19347;SDS011;9810;52.480;9.806;2023-09-18T13:50:58;38.08;;;4.47;;
19347;SDS011;9810;52.480;9.806;2023-09-18T13:53:25;5.20;;;1.40;;
19347;SDS011;9810;52.480;9.806;2023-09-18T13:55:56;3.78;;;2.00;;
19347;SDS011;9810;52.480;9.806;2023-09-18T13:58:24;8.30;;;1.45;;
19347;SDS011;9810;52.480;9.806;2023-09-18T14:00:51;39.80;;;3.13;;
19347;SDS011;9810;52.480;9.806;2023-09-18T14:03:19;4.70;;;1.33;;
19347;SDS011;9810;52.480;9.806;2023-09-18T14:05:48;4.07;;;1.35;;
19347;SDS011;9810;52.480;9.806;2023-09-18T14:08:15;3.75;;;1.10;;
19347;SDS011;9810;52.480;9.806;2023-09-18T14:10:44;4.30;;;1.45;;
19347;SDS011;9810;52.480;9.806;2023-09-18T14:13:13;3.40;;;1.00;;
19347;SDS011;9810;52.480;9.806;2023-09-18T14:15:40;5.45;;;0.95;;
19347;SDS011;9810;52.480;9.806;2023-09-18T14:18:07;8.07;;;1.65;;
19347;SDS011;9810;52.480;9.806;2023-09-18T14:20:34;30.70;;;2.47;;
19347;SDS011;9810;52.480;9.806;2023-09-18T14:23:01;9.13;;;1.83;;
19347;SDS011;9810;52.480;9.806;2023-09-18T14:25:28;49.97;;;5.28;;
19347;SDS011;9810;52.480;9.806;2023-09-18T14:27:55;45.75;;;4.30;;
19347;SDS011;9810;52.480;9.806;2023-09-18T14:30:24;32.53;;;3.63;;
19347;SDS011;9810;52.480;9.806;2023-09-18T14:32:56;19.75;;;2.28;;
19347;SDS011;9810;52.480;9.806;2023-09-18T14:35:25;6.15;;;1.23;;
19347;SDS011;9810;52.480;9.806;2023-09-18T14:37:52;5.90;;;1.88;;
19347;SDS011;9810;52.480;9.806;2023-09-18T14:40:19;5.95;;;1.30;;
19347;SDS011;9810;52.480;9.806;2023-09-18T14:42:49;3.30;;;1.30;;
19347;SDS011;9810;52.480;9.806;2023-09-18T14:45:16;5.38;;;1.80;;
19347;SDS011;9810;52.480;9.806;2023-09-18T14:47:45;4.60;;;1.42;;
19347;SDS011;9810;52.480;9.806;2023-09-18T14:50:12;4.75;;;1.83;;
19347;SDS011;9810;52.480;9.806;2023-09-18T14:52:39;4.28;;;1.80;;
19347;SDS011;9810;52.480;9.806;2023-09-18T14:55:06;8.38;;;1.70;;
19347;SDS011;9810;52.480;9.806;2023-09-18T14:57:33;3.50;;;1.60;;
19347;SDS011;9810;52.480;9.806;2023-09-18T15:00:00;6.53;;;1.67;;
19347;SDS011;9810;52.480;9.806;2023-09-18T15:02:31;7.32;;;1.63;;
19347;SDS011;9810;52.480;9.806;2023-09-18T15:05:01;5.20;;;1.90;;
19347;SDS011;9810;52.480;9.806;2023-09-18T15:07:34;8.85;;;1.65;;
19347;SDS011;9810;52.480;9.806;2023-09-18T15:10:01;3.15;;;1.48;;